This is the latest recevied weather packets stored in our database for station/object DH5DY-6. If no packets are shown the sender has not sent any weather packets the latest 10 day(s).
| Time | Temp. | Humidity | Pressure | Rain* | Wind** | Luminosity | Snow |
|---|---|---|---|---|---|---|---|
| 1787960552 | 13.33° C | 93% | 1011.5 hPa | 0 mm | - | 0 W/m² | - |
| 1787959351 | 13.89° C | 93% | 1011.6 hPa | 0 mm | - | 0 W/m² | - |
| 1787958751 | 13.89° C | 93% | 1011.6 hPa | 0 mm | - | 0 W/m² | - |
| 1787957554 | 14.44° C | 93% | 1011.8 hPa | 0 mm | - | 0 W/m² | - |
| 1787956951 | 14.44° C | 93% | 1011.8 hPa | 0 mm | - | 0 W/m² | - |
| 1787955751 | 14.44° C | 92% | 1011.7 hPa | 0 mm | - | 0 W/m² | - |
| 1787955152 | 14.44° C | 92% | 1011.3 hPa | 0 mm | - | 0 W/m² | - |
| 1787953951 | 14.44° C | 92% | 1010.9 hPa | 0 mm | - | 0 W/m² | - |
| 1787953351 | 14.44° C | 92% | 1010.9 hPa | 0 mm | - | 0 W/m² | - |
| 1787952151 | 14.44° C | 93% | 1010.8 hPa | 0 mm | - | 0 W/m² | - |
| 1787951551 | 14.44° C | 93% | 1010.7 hPa | 0 mm | - | 0 W/m² | - |
| 1787950351 | 14.44° C | 94% | 1010.4 hPa | 0.25 mm | - | 0 W/m² | - |
| 1787949751 | 14.44° C | 93% | 1010.3 hPa | 0.25 mm | - | 0 W/m² | - |
| 1787948550 | 14.44° C | 93% | 1010.1 hPa | 0.25 mm | - | 0 W/m² | - |
| 1787946751 | 14.44° C | 92% | 1010.1 hPa | 0 mm | - | 0 W/m² | - |
| 1787946151 | 14.44° C | 91% | 1010 hPa | 0 mm | - | 0 W/m² | - |
| 1787944950 | 15° C | 91% | 1009.8 hPa | 0.51 mm | - | 0 W/m² | - |
| 1787944351 | 15.56° C | 90% | 1009.8 hPa | 0.51 mm | - | 0 W/m² | - |
| 1787943150 | 16.11° C | 89% | 1009.6 hPa | 0.51 mm | - | 0 W/m² | - |
| 1787942550 | 16.11° C | 89% | 1009.3 hPa | 0.51 mm | - | 0 W/m² | - |
| 1787941353 | 16.67° C | 86% | 1009 hPa | 0 mm | - | 0 W/m² | - |
| 1787940750 | 16.67° C | 90% | 1008.2 hPa | 0 mm | - | 0 W/m² | - |
| 1787939550 | 17.78° C | 86% | 1007.8 hPa | 0 mm | - | 5 W/m² | - |
| 1787938950 | 18.33° C | 85% | 1007.8 hPa | 0 mm | - | 14 W/m² | - |
| 1787937750 | 20° C | 81% | 1007.6 hPa | 0 mm | - | 25 W/m² | - |
* Rain latest hour (hover to see other rain measurements)
** Current wind speed in m/s (hover to see current wind gust speed)